createdAt,value
2019-04-06T00:02:30.012Z,4.50
2019-04-06T00:04:58.846Z,4.50
2019-04-06T00:07:27.993Z,4.50
2019-04-06T00:09:56.802Z,4.50
2019-04-06T00:12:27.239Z,4.50
2019-04-06T00:14:56.305Z,4.50
2019-04-06T00:17:25.113Z,4.50
2019-04-06T00:19:54.298Z,4.50
2019-04-06T00:22:23.498Z,4.60
2019-04-06T00:24:52.323Z,4.60
2019-04-06T00:27:21.075Z,4.70
2019-04-06T00:29:50.284Z,4.70
2019-04-06T00:32:23.671Z,4.70
2019-04-06T00:34:52.079Z,4.70
2019-04-06T00:37:20.884Z,4.60
2019-04-06T00:39:50.038Z,4.60
2019-04-06T00:42:19.052Z,4.70
2019-04-06T00:44:48.231Z,4.60
2019-04-06T00:47:17.426Z,4.60
2019-04-06T00:49:46.194Z,4.60
2019-04-06T00:52:15.314Z,4.50
2019-04-06T00:54:44.422Z,4.50
2019-04-06T00:57:13.655Z,4.50
2019-04-06T00:59:42.417Z,4.40
2019-04-06T01:02:11.598Z,4.40
2019-04-06T01:04:40.439Z,4.40
2019-04-06T01:07:09.251Z,4.40
2019-04-06T01:09:38.060Z,4.40
2019-04-06T01:12:06.995Z,4.40
2019-04-06T01:14:36.165Z,4.50
2019-04-06T01:17:05.101Z,4.50
2019-04-06T01:19:34.244Z,4.50
2019-04-06T01:22:03.652Z,4.50
2019-04-06T01:24:32.454Z,4.50
2019-04-06T01:27:01.531Z,4.50
2019-04-06T01:29:30.330Z,4.50
2019-04-06T01:31:59.532Z,4.50
2019-04-06T01:34:28.723Z,4.50
2019-04-06T01:36:57.537Z,4.50
2019-04-06T01:39:26.751Z,4.60
2019-04-06T01:41:56.121Z,4.60
2019-04-06T01:44:25.312Z,4.60
2019-04-06T01:46:54.142Z,4.60
2019-04-06T01:49:22.955Z,4.60
2019-04-06T01:51:52.674Z,4.60
2019-04-06T01:54:21.510Z,4.60
2019-04-06T01:56:50.319Z,4.60
2019-04-06T01:59:19.493Z,4.60
2019-04-06T02:01:56.058Z,4.60
2019-04-06T02:04:25.273Z,4.60
2019-04-06T02:06:54.064Z,4.60
2019-04-06T02:09:23.130Z,4.60
2019-04-06T02:11:53.154Z,4.60
2019-04-06T02:14:22.237Z,4.70
2019-04-06T02:16:51.427Z,4.60
2019-04-06T02:19:20.522Z,4.70
2019-04-06T02:21:49.491Z,4.60
2019-04-06T02:24:18.625Z,4.60
2019-04-06T02:26:47.402Z,4.60
2019-04-06T02:29:16.507Z,4.60
2019-04-06T02:31:47.630Z,4.60
2019-04-06T02:34:21.050Z,4.60
2019-04-06T02:37:06.355Z,4.70
2019-04-06T02:39:53.245Z,4.70
2019-04-06T02:42:23.832Z,4.70
2019-04-06T02:44:52.967Z,4.80
2019-04-06T02:47:22.076Z,4.80
2019-04-06T02:49:50.818Z,4.70
2019-04-06T02:52:19.803Z,4.80
2019-04-06T02:54:48.933Z,4.70
2019-04-06T02:57:18.134Z,4.80
2019-04-06T02:59:47.094Z,4.80
2019-04-06T03:02:16.097Z,4.80
2019-04-06T03:04:44.927Z,4.70
2019-04-06T03:07:13.715Z,4.70
2019-04-06T03:09:42.539Z,4.70
2019-04-06T03:12:11.795Z,4.70
2019-04-06T03:14:43.826Z,4.80
2019-04-06T03:17:11.046Z,4.80
2019-04-06T03:19:40.117Z,4.80
2019-04-06T03:22:09.058Z,4.70
2019-04-06T03:24:38.038Z,4.70
2019-04-06T03:27:07.406Z,4.70
2019-04-06T03:29:36.148Z,4.70
2019-04-06T03:32:05.304Z,4.70
2019-04-06T03:34:34.378Z,4.70
2019-04-06T03:37:03.219Z,4.70
2019-04-06T03:39:32.548Z,4.60
2019-04-06T03:42:01.887Z,4.70
2019-04-06T03:44:30.976Z,4.70
2019-04-06T03:46:59.945Z,4.80
2019-04-06T03:49:28.915Z,4.80
2019-04-06T03:51:57.812Z,4.80
2019-04-06T03:54:26.600Z,4.80
2019-04-06T03:56:55.443Z,4.80
2019-04-06T03:59:24.531Z,4.80
2019-04-06T04:01:54.757Z,4.80
2019-04-06T04:04:23.580Z,4.90
2019-04-06T04:06:52.394Z,4.90
2019-04-06T04:09:21.170Z,5.00
2019-04-06T04:11:50.518Z,5.00
2019-04-06T04:14:19.296Z,5.00
2019-04-06T04:16:48.514Z,5.00
2019-04-06T04:19:18.035Z,5.00
2019-04-06T04:21:47.628Z,5.00
2019-04-06T04:24:16.825Z,5.10
2019-04-06T04:26:46.018Z,5.10
2019-04-06T04:29:14.723Z,5.10
2019-04-06T04:31:43.721Z,5.10
2019-04-06T04:34:12.994Z,5.20
2019-04-06T04:36:42.107Z,5.10
2019-04-06T04:39:10.894Z,5.20
2019-04-06T04:41:40.439Z,5.20
2019-04-06T04:44:09.897Z,5.10
2019-04-06T04:46:38.707Z,5.20
2019-04-06T04:49:07.896Z,5.20
2019-04-06T04:51:36.604Z,5.20
2019-04-06T04:54:05.779Z,5.20
2019-04-06T04:56:34.877Z,5.20
2019-04-06T04:59:03.653Z,5.20
2019-04-06T05:01:34.602Z,5.20
2019-04-06T05:04:03.705Z,5.30
2019-04-06T05:06:32.898Z,5.30
2019-04-06T05:09:01.986Z,5.30
2019-04-06T05:11:31.188Z,5.40
2019-04-06T05:14:28.537Z,5.40
2019-04-06T05:16:57.647Z,5.40
2019-04-06T05:19:26.848Z,5.40
2019-04-06T05:21:55.627Z,5.50
2019-04-06T05:24:24.725Z,5.50
2019-04-06T05:26:53.923Z,5.50
2019-04-06T05:29:23.132Z,5.60
2019-04-06T05:31:52.327Z,5.60
2019-04-06T05:34:21.034Z,5.60
2019-04-06T05:36:49.854Z,5.60
2019-04-06T05:39:18.891Z,5.60
2019-04-06T05:41:50.341Z,5.70
2019-04-06T05:44:18.833Z,5.70
2019-04-06T05:46:47.930Z,5.70
2019-04-06T05:49:17.020Z,5.80
2019-04-06T05:51:47.047Z,5.80
2019-04-06T05:54:16.138Z,5.70
2019-04-06T05:56:45.226Z,5.70
2019-04-06T05:59:14.046Z,5.80
2019-04-06T06:01:42.983Z,5.80
2019-04-06T06:04:12.115Z,5.90
2019-04-06T06:06:41.215Z,5.80
2019-04-06T06:09:10.000Z,5.80
2019-04-06T06:11:41.134Z,5.80
2019-04-06T06:14:10.242Z,5.90
2019-04-06T06:16:39.340Z,5.90
2019-04-06T06:19:08.120Z,5.90
2019-04-06T06:21:37.421Z,5.90
2019-04-06T06:24:06.206Z,6.00
2019-04-06T06:26:34.924Z,6.00
2019-04-06T06:29:03.754Z,6.00
2019-04-06T06:31:32.755Z,6.00
2019-04-06T06:34:01.784Z,6.00
2019-04-06T06:36:30.984Z,6.00
2019-04-06T06:39:00.070Z,6.10
2019-04-06T06:41:29.033Z,6.20
2019-04-06T06:43:58.171Z,6.20
2019-04-06T06:46:27.267Z,6.20
2019-04-06T06:48:56.055Z,6.30
2019-04-06T06:51:25.249Z,6.30
2019-04-06T06:53:54.061Z,6.40
2019-04-06T06:56:22.847Z,6.40
2019-04-06T06:58:51.674Z,6.40
2019-04-06T07:01:20.819Z,6.50
2019-04-06T07:03:49.756Z,6.50
2019-04-06T07:06:19.310Z,6.50
2019-04-06T07:08:48.617Z,6.50
2019-04-06T07:11:17.615Z,6.60
2019-04-06T07:13:46.798Z,6.60
2019-04-06T07:16:15.547Z,6.60
2019-04-06T07:18:44.704Z,6.70
2019-04-06T07:21:13.483Z,6.70
2019-04-06T07:23:42.897Z,6.70
2019-04-06T07:26:12.217Z,6.80
2019-04-06T07:28:40.980Z,6.70
2019-04-06T07:31:10.079Z,6.80
2019-04-06T07:33:39.287Z,6.80
2019-04-06T07:36:08.479Z,6.90
2019-04-06T07:38:38.333Z,6.90
2019-04-06T07:41:07.796Z,6.90
2019-04-06T07:43:36.628Z,6.90
2019-04-06T07:46:05.678Z,7.00
2019-04-06T07:48:34.770Z,7.00
2019-04-06T07:51:03.982Z,7.10
2019-04-06T07:53:33.069Z,7.20
2019-04-06T07:56:02.163Z,7.30
2019-04-06T07:58:30.998Z,7.30
2019-04-06T08:01:00.058Z,7.30
2019-04-06T08:03:28.896Z,7.40
2019-04-06T08:05:58.050Z,7.50
2019-04-06T08:08:28.675Z,7.40
2019-04-06T08:10:57.684Z,7.50
2019-04-06T08:13:27.664Z,7.40
2019-04-06T08:15:56.575Z,7.50
2019-04-06T08:18:25.390Z,7.50
2019-04-06T08:20:54.462Z,7.60
2019-04-06T08:23:23.677Z,7.60
2019-04-06T08:25:52.398Z,7.60
2019-04-06T08:28:21.561Z,7.70
2019-04-06T08:30:50.650Z,7.70
2019-04-06T08:33:19.955Z,7.70
2019-04-06T08:35:49.193Z,7.80
2019-04-06T08:38:18.350Z,7.80
2019-04-06T08:40:47.683Z,7.80
2019-04-06T08:43:16.857Z,7.90
2019-04-06T08:45:45.659Z,7.90
2019-04-06T08:48:14.543Z,7.90
2019-04-06T08:50:43.426Z,7.90
2019-04-06T08:53:12.463Z,8.00
2019-04-06T08:55:41.288Z,8.00
2019-04-06T08:58:10.098Z,8.00
2019-04-06T09:00:38.926Z,8.10
2019-04-06T09:03:08.279Z,8.10
2019-04-06T09:05:37.387Z,8.10
2019-04-06T09:08:06.107Z,8.10
2019-04-06T09:10:35.007Z,8.10
2019-04-06T09:13:03.986Z,8.10
2019-04-06T09:15:33.261Z,8.10
2019-04-06T09:18:02.054Z,8.20
2019-04-06T09:20:30.797Z,8.20
2019-04-06T09:22:59.893Z,8.20
2019-04-06T09:25:28.680Z,8.30
2019-04-06T09:27:57.386Z,8.40
2019-04-06T09:30:26.521Z,8.40
2019-04-06T09:32:56.000Z,8.30
2019-04-06T09:35:24.876Z,8.40
2019-04-06T09:37:54.012Z,8.40
2019-04-06T09:40:23.011Z,8.40
2019-04-06T09:42:53.922Z,8.40
2019-04-06T09:45:41.377Z,8.40
2019-04-06T09:48:20.612Z,8.40
2019-04-06T09:50:57.266Z,8.40
2019-04-06T09:53:27.657Z,8.40
2019-04-06T09:56:01.102Z,8.40
2019-04-06T09:58:46.615Z,8.50
2019-04-06T10:01:19.582Z,8.50
2019-04-06T10:03:53.266Z,8.50
2019-04-06T10:06:32.161Z,8.60
2019-04-06T10:09:11.221Z,8.60
2019-04-06T10:14:33.142Z,8.60
2019-04-06T10:17:06.477Z,8.60
2019-04-06T10:19:42.323Z,8.70
2019-04-06T10:22:18.671Z,8.80
2019-04-06T10:25:05.836Z,8.70
2019-04-06T10:27:45.166Z,8.70
2019-04-06T10:30:32.714Z,8.60
2019-04-06T10:33:15.390Z,8.60
2019-04-06T10:35:51.765Z,8.60
2019-04-06T10:38:25.266Z,8.60
2019-04-06T10:40:58.722Z,8.60
2019-04-06T10:43:48.062Z,8.60
2019-04-06T10:46:18.772Z,8.60
2019-04-06T10:48:49.751Z,8.70
2019-04-06T10:51:25.966Z,8.70
2019-04-06T10:54:02.139Z,8.70
2019-04-06T10:56:32.982Z,8.70
2019-04-06T10:59:09.891Z,8.60
2019-04-06T11:01:57.267Z,8.60
2019-04-06T11:04:33.360Z,8.60
2019-04-06T11:07:20.564Z,8.60
2019-04-06T11:10:07.181Z,8.60
2019-04-06T11:12:54.736Z,8.60
2019-04-06T11:18:12.998Z,8.60
2019-04-06T11:20:58.049Z,8.60
2019-04-06T11:23:34.449Z,8.50
2019-04-06T11:26:05.129Z,8.50
2019-04-06T11:28:35.490Z,8.50
2019-04-06T11:31:12.454Z,8.30
2019-04-06T11:33:48.927Z,8.40
2019-04-06T11:36:23.052Z,8.40
2019-04-06T11:38:59.561Z,8.40
2019-04-06T11:41:36.687Z,8.50
2019-04-06T11:44:19.506Z,8.50
2019-04-06T11:46:59.007Z,8.50
2019-04-06T11:49:35.384Z,8.50
2019-04-06T11:52:06.139Z,8.50
2019-04-06T11:54:39.666Z,8.40
2019-04-06T11:57:13.615Z,8.40
2019-04-06T12:00:00.483Z,8.40
2019-04-06T12:02:40.002Z,8.50
2019-04-06T12:05:20.062Z,8.40
2019-04-06T12:07:53.963Z,8.50
2019-04-06T12:10:30.812Z,8.60
2019-04-06T12:13:04.951Z,8.50
2019-04-06T12:15:44.199Z,8.50
2019-04-06T12:18:31.096Z,8.60
2019-04-06T12:21:07.793Z,8.60
2019-04-06T12:23:44.807Z,8.60
2019-04-06T12:26:15.806Z,8.70
2019-04-06T12:28:48.944Z,8.70
2019-04-06T12:31:35.650Z,8.70
2019-04-06T12:34:24.624Z,8.80
2019-04-06T12:37:13.364Z,8.80
2019-04-06T12:39:53.123Z,8.90
2019-04-06T12:42:25.343Z,8.90
2019-04-06T12:45:12.761Z,8.90
2019-04-06T12:47:43.250Z,9.00
2019-04-06T12:50:14.029Z,9.10
2019-04-06T12:52:44.876Z,9.10
2019-04-06T12:55:15.605Z,9.10
2019-04-06T12:57:51.794Z,9.00
2019-04-06T13:00:49.476Z,9.00
2019-04-06T13:03:14.536Z,9.10
2019-04-06T13:05:57.637Z,9.00
2019-04-06T13:08:44.472Z,8.90
2019-04-06T13:11:33.386Z,8.90
2019-04-06T13:14:07.169Z,8.80
2019-04-06T13:16:37.739Z,8.80
2019-04-06T13:19:24.569Z,8.80
2019-04-06T13:22:04.202Z,8.90
2019-04-06T13:24:38.452Z,9.00
2019-04-06T13:27:11.868Z,9.00
2019-04-06T13:29:42.583Z,8.90
2019-04-06T13:32:29.893Z,8.90
2019-04-06T13:35:06.375Z,8.80
2019-04-06T13:37:37.101Z,8.80
2019-04-06T13:40:18.181Z,8.70
2019-04-06T13:43:01.205Z,8.70
2019-04-06T13:45:37.476Z,8.70
2019-04-06T13:48:20.116Z,8.70
2019-04-06T13:50:57.245Z,8.70
2019-04-06T13:53:33.372Z,8.70
2019-04-06T13:56:06.492Z,8.60
2019-04-06T13:58:36.869Z,8.60
2019-04-06T14:01:15.066Z,8.60
2019-04-06T14:03:58.293Z,8.60
2019-04-06T14:06:34.752Z,8.60
2019-04-06T14:09:09.993Z,8.70
2019-04-06T14:11:52.730Z,8.60
2019-04-06T14:14:32.394Z,8.50
2019-04-06T14:17:19.579Z,8.60
2019-04-06T14:19:59.456Z,8.50
2019-04-06T14:22:33.233Z,8.50
2019-04-06T14:25:06.375Z,8.40
2019-04-06T14:27:37.166Z,8.50
2019-04-06T14:30:11.285Z,8.40
2019-04-06T14:32:44.786Z,8.40
2019-04-06T14:35:20.461Z,8.40
2019-04-06T14:37:50.813Z,8.30
2019-04-06T14:40:21.566Z,8.30
2019-04-06T14:42:58.470Z,8.20
2019-04-06T14:45:47.556Z,8.30
2019-04-06T14:48:24.526Z,8.20
2019-04-06T14:50:57.834Z,8.20
2019-04-06T14:53:31.761Z,8.20
2019-04-06T14:56:11.155Z,8.20
2019-04-06T14:58:44.958Z,8.20
2019-04-06T15:01:45.579Z,8.20
2019-04-06T15:04:13.525Z,8.10
2019-04-06T15:06:47.162Z,8.20
2019-04-06T15:09:26.776Z,8.20
2019-04-06T15:12:15.983Z,8.20
2019-04-06T15:15:02.500Z,8.10
2019-04-06T15:17:48.196Z,8.10
2019-04-06T15:20:21.577Z,8.10
2019-04-06T15:23:08.500Z,8.10
2019-04-06T15:25:39.222Z,8.10
2019-04-06T15:28:12.937Z,7.90
2019-04-06T15:30:49.499Z,7.90
2019-04-06T15:33:20.234Z,8.00
2019-04-06T15:35:53.328Z,7.90
2019-04-06T15:38:39.829Z,7.90
2019-04-06T15:41:15.975Z,7.90
2019-04-06T15:44:03.214Z,7.90
2019-04-06T15:46:33.581Z,8.00
2019-04-06T15:49:04.711Z,8.00
2019-04-06T15:51:35.454Z,8.00
2019-04-06T15:54:09.610Z,8.00
2019-04-06T15:56:58.602Z,7.90
2019-04-06T15:59:41.309Z,7.90
2019-04-06T16:02:11.841Z,7.90
2019-04-06T16:04:44.942Z,7.90
2019-04-06T16:07:24.904Z,8.00
2019-04-06T16:09:55.725Z,7.90
2019-04-06T16:12:26.457Z,7.90
2019-04-06T16:15:09.376Z,7.90
2019-04-06T16:17:45.913Z,7.90
2019-04-06T16:20:17.212Z,7.90
2019-04-06T16:23:04.424Z,7.90
2019-04-06T16:25:37.809Z,7.90
2019-04-06T16:28:24.651Z,7.90
2019-04-06T16:30:55.361Z,7.80
2019-04-06T16:33:31.749Z,7.80
2019-04-06T16:36:05.972Z,7.80
2019-04-06T16:38:36.985Z,7.90
2019-04-06T16:41:10.236Z,8.00
2019-04-06T16:43:49.511Z,8.00
2019-04-06T16:46:46.894Z,8.00
2019-04-06T16:49:20.143Z,7.90
2019-04-06T16:51:50.743Z,8.00
2019-04-06T16:54:30.458Z,7.90
2019-04-06T16:57:01.188Z,7.90
2019-04-06T16:59:43.694Z,7.90
2019-04-06T17:02:30.611Z,7.90
2019-04-06T17:05:01.393Z,7.90
2019-04-06T17:07:40.739Z,7.80
2019-04-06T17:10:11.425Z,7.80
2019-04-06T17:12:44.650Z,7.80
2019-04-06T17:15:21.390Z,7.80
2019-04-06T17:18:08.548Z,7.70
2019-04-06T17:20:51.126Z,7.70
2019-04-06T17:23:24.824Z,7.80
2019-04-06T17:25:55.181Z,7.80
2019-04-06T17:28:26.348Z,7.70
2019-04-06T17:31:02.697Z,7.70
2019-04-06T17:33:45.357Z,7.70
2019-04-06T17:36:24.530Z,7.70
2019-04-06T17:39:00.650Z,7.70
2019-04-06T17:41:47.706Z,7.70
2019-04-06T17:44:34.930Z,7.60
2019-04-06T17:47:17.159Z,7.60
2019-04-06T17:50:04.228Z,7.60
2019-04-06T17:52:50.237Z,7.60
2019-04-06T17:55:24.714Z,7.50
2019-04-06T17:58:10.701Z,7.50
2019-04-06T18:00:44.253Z,7.50
2019-04-06T18:03:20.798Z,7.50
2019-04-06T18:05:51.795Z,7.50
2019-04-06T18:08:37.440Z,7.50
2019-04-06T18:11:10.327Z,7.50
2019-04-06T18:13:52.240Z,7.50
2019-04-06T18:16:23.303Z,7.40
2019-04-06T18:18:52.568Z,7.40
2019-04-06T18:21:21.659Z,7.40
2019-04-06T18:23:50.760Z,7.40
2019-04-06T18:26:19.622Z,7.40
2019-04-06T18:28:48.654Z,7.40
2019-04-06T18:31:21.981Z,7.40
2019-04-06T18:33:50.235Z,7.30
2019-04-06T18:36:21.586Z,7.40
2019-04-06T18:39:03.945Z,7.30
2019-04-06T18:41:32.652Z,7.30
2019-04-06T18:44:01.765Z,7.30
2019-04-06T18:46:30.650Z,7.30
2019-04-06T18:48:59.753Z,7.30
2019-04-06T18:51:28.952Z,7.30
2019-04-06T18:54:22.244Z,7.30
2019-04-06T18:56:51.317Z,7.20
2019-04-06T18:59:20.651Z,7.30
2019-04-06T19:01:49.835Z,7.30
2019-04-06T19:04:19.011Z,7.30
2019-04-06T19:06:48.164Z,7.30
2019-04-06T19:09:23.601Z,7.30
2019-04-06T19:11:54.346Z,7.30
2019-04-06T19:14:18.818Z,7.30
2019-04-06T19:16:47.840Z,7.30
2019-04-06T19:19:17.268Z,7.20
2019-04-06T19:21:46.732Z,7.20
2019-04-06T19:24:15.641Z,7.20
2019-04-06T19:26:44.412Z,7.20
2019-04-06T19:29:13.687Z,7.20
2019-04-06T19:31:43.381Z,7.20
2019-04-06T19:34:12.581Z,7.20
2019-04-06T19:36:41.303Z,7.20
2019-04-06T19:39:13.493Z,7.20
2019-04-06T19:41:43.584Z,7.20
2019-04-06T19:44:13.256Z,7.20
2019-04-06T19:46:42.282Z,7.10
2019-04-06T19:49:11.835Z,7.10
2019-04-06T19:51:41.186Z,7.00
2019-04-06T19:54:09.964Z,7.00
2019-04-06T19:56:39.153Z,7.00
2019-04-06T19:59:07.939Z,6.90
2019-04-06T20:01:37.544Z,6.90
2019-04-06T20:04:06.871Z,6.90
2019-04-06T20:06:42.073Z,6.90
2019-04-06T20:09:11.015Z,6.80
2019-04-06T20:11:40.054Z,6.90
2019-04-06T20:14:09.592Z,6.80
2019-04-06T20:16:38.819Z,6.80
2019-04-06T20:19:07.982Z,6.80
2019-04-06T20:21:37.356Z,6.80
2019-04-06T20:24:06.814Z,6.80
2019-04-06T20:26:36.099Z,6.80
2019-04-06T20:29:06.342Z,6.80
2019-04-06T20:31:36.117Z,6.70
2019-04-06T20:34:05.332Z,6.70
2019-04-06T20:36:34.415Z,6.70
2019-04-06T20:39:05.153Z,6.70
2019-04-06T20:41:33.974Z,6.80
2019-04-06T20:44:03.138Z,6.80
2019-04-06T20:46:32.345Z,6.80
2019-04-06T20:49:01.212Z,6.80
2019-04-06T20:51:30.336Z,6.70
2019-04-06T20:53:59.950Z,6.70
2019-04-06T20:56:29.797Z,6.80
2019-04-06T20:58:58.956Z,6.70
2019-04-06T21:01:27.881Z,6.70
2019-04-06T21:04:01.919Z,6.70
2019-04-06T21:06:28.089Z,6.70
2019-04-06T21:08:57.921Z,6.70
2019-04-06T21:11:26.691Z,6.70
2019-04-06T21:13:55.519Z,6.70
2019-04-06T21:16:24.335Z,6.70
2019-04-06T21:18:53.528Z,6.70
2019-04-06T21:21:22.887Z,6.70
2019-04-06T21:23:51.973Z,6.80
2019-04-06T21:26:20.702Z,6.80
2019-04-06T21:28:50.266Z,6.70
2019-04-06T21:31:19.757Z,6.80
2019-04-06T21:33:49.201Z,6.80
2019-04-06T21:36:19.067Z,6.70
2019-04-06T21:38:48.300Z,6.80
2019-04-06T21:41:17.385Z,6.80
2019-04-06T21:43:46.473Z,6.80
2019-04-06T21:46:15.776Z,6.80
2019-04-06T21:48:44.783Z,6.80
2019-04-06T21:51:13.986Z,6.80
2019-04-06T21:53:42.691Z,6.80
2019-04-06T21:56:12.276Z,6.80
2019-04-06T21:58:41.495Z,6.80
2019-04-06T22:01:12.107Z,6.80
2019-04-06T22:03:40.896Z,6.80
2019-04-06T22:06:09.728Z,6.80
2019-04-06T22:08:38.524Z,6.80
2019-04-06T22:11:07.341Z,6.80
2019-04-06T22:13:36.601Z,6.80
2019-04-06T22:16:05.323Z,6.80
2019-04-06T22:18:34.098Z,6.80
2019-04-06T22:21:03.240Z,6.80
2019-04-06T22:23:40.961Z,6.70
2019-04-06T22:26:03.196Z,6.80
2019-04-06T22:28:32.248Z,6.80
2019-04-06T22:31:01.752Z,6.80
2019-04-06T22:33:30.621Z,6.80
2019-04-06T22:35:59.456Z,6.70
2019-04-06T22:38:28.196Z,6.70
2019-04-06T22:40:56.908Z,6.70
2019-04-06T22:43:26.143Z,6.80
2019-04-06T22:45:54.860Z,6.80
2019-04-06T22:48:24.192Z,6.80
2019-04-06T22:50:54.030Z,6.70
2019-04-06T22:53:23.635Z,6.70
2019-04-06T22:55:52.627Z,6.80
2019-04-06T22:58:22.387Z,6.80
2019-04-06T23:00:53.093Z,6.80
2019-04-06T23:03:24.032Z,6.70
2019-04-06T23:05:57.434Z,6.80
2019-04-06T23:08:26.519Z,6.80
2019-04-06T23:10:55.650Z,6.80
2019-04-06T23:13:24.710Z,6.80
2019-04-06T23:15:53.512Z,6.80
2019-04-06T23:18:22.280Z,6.80
2019-04-06T23:20:52.083Z,6.70
2019-04-06T23:23:20.974Z,6.80
2019-04-06T23:25:49.677Z,6.80
2019-04-06T23:28:18.881Z,6.80
2019-04-06T23:30:48.007Z,6.80
2019-04-06T23:33:17.594Z,6.80
2019-04-06T23:35:47.103Z,6.80
2019-04-06T23:38:15.980Z,6.70
2019-04-06T23:40:45.457Z,6.80
2019-04-06T23:43:15.094Z,6.80
2019-04-06T23:45:43.909Z,6.80
2019-04-06T23:48:12.627Z,6.80
2019-04-06T23:50:41.674Z,6.80
2019-04-06T23:53:10.458Z,6.80
2019-04-06T23:55:39.346Z,6.80
2019-04-06T23:58:08.550Z,6.80
